sensor_id;sensor_type;location;lat;lon;timestamp;P1;durP1;ratioP1;P2;durP2;ratioP2
50056;SDS011;36875;49.468;11.200;2022-10-16T00:01:05;2.28;;;1.83;;
50056;SDS011;36875;49.468;11.200;2022-10-16T00:03:32;1.65;;;1.50;;
50056;SDS011;36875;49.468;11.200;2022-10-16T00:05:58;1.83;;;1.50;;
50056;SDS011;36875;49.468;11.200;2022-10-16T00:08:26;1.60;;;1.40;;
50056;SDS011;36875;49.468;11.200;2022-10-16T00:10:52;2.60;;;1.48;;
50056;SDS011;36875;49.468;11.200;2022-10-16T00:13:23;1.50;;;1.40;;
50056;SDS011;36875;49.468;11.200;2022-10-16T00:15:48;1.98;;;1.35;;
50056;SDS011;36875;49.468;11.200;2022-10-16T00:18:14;1.50;;;1.33;;
50056;SDS011;36875;49.468;11.200;2022-10-16T00:20:39;2.00;;;1.50;;
50056;SDS011;36875;49.468;11.200;2022-10-16T00:23:05;1.48;;;1.38;;
50056;SDS011;36875;49.468;11.200;2022-10-16T00:25:32;1.38;;;1.23;;
50056;SDS011;36875;49.468;11.200;2022-10-16T00:27:57;2.08;;;1.50;;
50056;SDS011;36875;49.468;11.200;2022-10-16T00:30:23;1.95;;;1.40;;
50056;SDS011;36875;49.468;11.200;2022-10-16T00:32:49;1.50;;;1.40;;
50056;SDS011;36875;49.468;11.200;2022-10-16T00:35:14;1.58;;;1.33;;
50056;SDS011;36875;49.468;11.200;2022-10-16T00:37:40;1.20;;;1.10;;
50056;SDS011;36875;49.468;11.200;2022-10-16T00:40:06;1.83;;;1.15;;
50056;SDS011;36875;49.468;11.200;2022-10-16T00:42:33;3.33;;;1.27;;
50056;SDS011;36875;49.468;11.200;2022-10-16T00:44:58;1.85;;;1.35;;
50056;SDS011;36875;49.468;11.200;2022-10-16T00:47:25;1.50;;;1.40;;
50056;SDS011;36875;49.468;11.200;2022-10-16T00:49:55;1.80;;;1.35;;
50056;SDS011;36875;49.468;11.200;2022-10-16T00:52:25;1.30;;;1.20;;
50056;SDS011;36875;49.468;11.200;2022-10-16T00:54:51;1.75;;;1.17;;
50056;SDS011;36875;49.468;11.200;2022-10-16T00:57:18;1.75;;;1.20;;
50056;SDS011;36875;49.468;11.200;2022-10-16T00:59:48;1.60;;;1.35;;
50056;SDS011;36875;49.468;11.200;2022-10-16T01:02:14;1.60;;;1.20;;
50056;SDS011;36875;49.468;11.200;2022-10-16T01:04:42;1.48;;;1.30;;
50056;SDS011;36875;49.468;11.200;2022-10-16T01:07:10;1.35;;;1.13;;
50056;SDS011;36875;49.468;11.200;2022-10-16T01:09:41;1.30;;;1.20;;
50056;SDS011;36875;49.468;11.200;2022-10-16T01:12:14;1.20;;;1.10;;
50056;SDS011;36875;49.468;11.200;2022-10-16T01:14:44;1.30;;;1.20;;
50056;SDS011;36875;49.468;11.200;2022-10-16T01:17:15;1.33;;;1.20;;
50056;SDS011;36875;49.468;11.200;2022-10-16T01:19:50;1.23;;;1.13;;
50056;SDS011;36875;49.468;11.200;2022-10-16T01:22:26;1.17;;;1.08;;
50056;SDS011;36875;49.468;11.200;2022-10-16T01:25:01;1.20;;;1.10;;
50056;SDS011;36875;49.468;11.200;2022-10-16T01:27:33;2.10;;;1.13;;
50056;SDS011;36875;49.468;11.200;2022-10-16T01:30:04;1.55;;;1.02;;
50056;SDS011;36875;49.468;11.200;2022-10-16T01:35:02;1.20;;;1.10;;
50056;SDS011;36875;49.468;11.200;2022-10-16T01:37:32;1.30;;;0.98;;
50056;SDS011;36875;49.468;11.200;2022-10-16T01:40:02;1.45;;;1.02;;
50056;SDS011;36875;49.468;11.200;2022-10-16T01:45:02;1.20;;;1.10;;
50056;SDS011;36875;49.468;11.200;2022-10-16T01:47:33;1.50;;;1.00;;
50056;SDS011;36875;49.468;11.200;2022-10-16T01:50:00;1.10;;;1.00;;
50056;SDS011;36875;49.468;11.200;2022-10-16T01:52:29;1.17;;;1.05;;
50056;SDS011;36875;49.468;11.200;2022-10-16T01:54:59;1.40;;;1.25;;
50056;SDS011;36875;49.468;11.200;2022-10-16T01:57:29;0.90;;;0.90;;
50056;SDS011;36875;49.468;11.200;2022-10-16T01:59:59;1.13;;;0.90;;
50056;SDS011;36875;49.468;11.200;2022-10-16T02:02:28;1.17;;;1.08;;
50056;SDS011;36875;49.468;11.200;2022-10-16T02:04:57;1.25;;;0.82;;
50056;SDS011;36875;49.468;11.200;2022-10-16T02:07:27;1.15;;;0.90;;
50056;SDS011;36875;49.468;11.200;2022-10-16T02:09:53;1.13;;;1.00;;
50056;SDS011;36875;49.468;11.200;2022-10-16T02:12:21;1.00;;;0.90;;
50056;SDS011;36875;49.468;11.200;2022-10-16T02:14:50;0.77;;;0.70;;
50056;SDS011;36875;49.468;11.200;2022-10-16T02:17:17;0.93;;;0.90;;
50056;SDS011;36875;49.468;11.200;2022-10-16T02:19:43;1.52;;;0.90;;
50056;SDS011;36875;49.468;11.200;2022-10-16T02:22:14;1.38;;;1.00;;
50056;SDS011;36875;49.468;11.200;2022-10-16T02:24:46;1.38;;;0.90;;
50056;SDS011;36875;49.468;11.200;2022-10-16T02:27:17;1.20;;;0.93;;
50056;SDS011;36875;49.468;11.200;2022-10-16T02:29:49;0.90;;;0.90;;
50056;SDS011;36875;49.468;11.200;2022-10-16T02:32:27;0.80;;;0.80;;
50056;SDS011;36875;49.468;11.200;2022-10-16T02:34:56;1.05;;;0.90;;
50056;SDS011;36875;49.468;11.200;2022-10-16T02:37:23;0.70;;;0.70;;
50056;SDS011;36875;49.468;11.200;2022-10-16T02:39:50;0.88;;;0.82;;
50056;SDS011;36875;49.468;11.200;2022-10-16T02:42:17;2.17;;;1.13;;
50056;SDS011;36875;49.468;11.200;2022-10-16T02:44:43;0.80;;;0.80;;
50056;SDS011;36875;49.468;11.200;2022-10-16T02:47:09;1.02;;;0.80;;
50056;SDS011;36875;49.468;11.200;2022-10-16T02:49:36;0.63;;;0.63;;
50056;SDS011;36875;49.468;11.200;2022-10-16T02:52:01;1.30;;;0.80;;
50056;SDS011;36875;49.468;11.200;2022-10-16T02:54:27;1.15;;;0.82;;
50056;SDS011;36875;49.468;11.200;2022-10-16T02:56:52;1.00;;;0.80;;
50056;SDS011;36875;49.468;11.200;2022-10-16T02:59:18;0.73;;;0.73;;
50056;SDS011;36875;49.468;11.200;2022-10-16T03:01:43;1.10;;;0.82;;
50056;SDS011;36875;49.468;11.200;2022-10-16T03:04:09;1.20;;;0.75;;
50056;SDS011;36875;49.468;11.200;2022-10-16T03:06:35;0.70;;;0.70;;
50056;SDS011;36875;49.468;11.200;2022-10-16T03:09:01;0.90;;;0.80;;
50056;SDS011;36875;49.468;11.200;2022-10-16T03:11:27;0.95;;;0.70;;
50056;SDS011;36875;49.468;11.200;2022-10-16T03:13:53;1.00;;;0.90;;
50056;SDS011;36875;49.468;11.200;2022-10-16T03:16:18;0.73;;;0.70;;
50056;SDS011;36875;49.468;11.200;2022-10-16T03:18:47;1.33;;;0.90;;
50056;SDS011;36875;49.468;11.200;2022-10-16T03:21:13;0.80;;;0.70;;
50056;SDS011;36875;49.468;11.200;2022-10-16T03:23:40;0.70;;;0.70;;
50056;SDS011;36875;49.468;11.200;2022-10-16T03:26:05;0.60;;;0.60;;
50056;SDS011;36875;49.468;11.200;2022-10-16T03:28:31;0.80;;;0.80;;
50056;SDS011;36875;49.468;11.200;2022-10-16T03:30:56;0.70;;;0.70;;
50056;SDS011;36875;49.468;11.200;2022-10-16T03:33:22;0.50;;;0.50;;
50056;SDS011;36875;49.468;11.200;2022-10-16T03:35:51;0.73;;;0.73;;
50056;SDS011;36875;49.468;11.200;2022-10-16T03:38:17;1.00;;;0.90;;
50056;SDS011;36875;49.468;11.200;2022-10-16T03:40:43;0.70;;;0.70;;
50056;SDS011;36875;49.468;11.200;2022-10-16T03:43:09;0.80;;;0.80;;
50056;SDS011;36875;49.468;11.200;2022-10-16T03:45:34;1.80;;;0.70;;
50056;SDS011;36875;49.468;11.200;2022-10-16T03:48:00;0.60;;;0.60;;
50056;SDS011;36875;49.468;11.200;2022-10-16T03:50:27;1.25;;;0.80;;
50056;SDS011;36875;49.468;11.200;2022-10-16T03:52:53;0.63;;;0.63;;
50056;SDS011;36875;49.468;11.200;2022-10-16T03:55:18;0.60;;;0.60;;
50056;SDS011;36875;49.468;11.200;2022-10-16T03:57:45;0.85;;;0.73;;
50056;SDS011;36875;49.468;11.200;2022-10-16T04:00:11;1.55;;;1.08;;
50056;SDS011;36875;49.468;11.200;2022-10-16T04:02:37;0.65;;;0.65;;
50056;SDS011;36875;49.468;11.200;2022-10-16T04:05:02;0.63;;;0.63;;
50056;SDS011;36875;49.468;11.200;2022-10-16T04:07:28;0.65;;;0.65;;
50056;SDS011;36875;49.468;11.200;2022-10-16T04:09:54;0.65;;;0.60;;
50056;SDS011;36875;49.468;11.200;2022-10-16T04:12:19;0.93;;;0.65;;
50056;SDS011;36875;49.468;11.200;2022-10-16T04:14:46;0.68;;;0.60;;
50056;SDS011;36875;49.468;11.200;2022-10-16T04:17:12;1.05;;;0.70;;
50056;SDS011;36875;49.468;11.200;2022-10-16T04:19:37;0.90;;;0.70;;
50056;SDS011;36875;49.468;11.200;2022-10-16T04:22:03;0.50;;;0.50;;
50056;SDS011;36875;49.468;11.200;2022-10-16T04:24:31;0.57;;;0.52;;
50056;SDS011;36875;49.468;11.200;2022-10-16T04:26:56;1.33;;;0.60;;
50056;SDS011;36875;49.468;11.200;2022-10-16T04:29:22;0.57;;;0.57;;
50056;SDS011;36875;49.468;11.200;2022-10-16T04:31:49;0.93;;;0.60;;
50056;SDS011;36875;49.468;11.200;2022-10-16T04:34:14;1.05;;;0.70;;
50056;SDS011;36875;49.468;11.200;2022-10-16T04:36:40;0.60;;;0.60;;
50056;SDS011;36875;49.468;11.200;2022-10-16T04:39:05;0.50;;;0.50;;
50056;SDS011;36875;49.468;11.200;2022-10-16T04:41:31;0.55;;;0.47;;
50056;SDS011;36875;49.468;11.200;2022-10-16T04:43:56;0.65;;;0.60;;
50056;SDS011;36875;49.468;11.200;2022-10-16T04:46:21;0.95;;;0.70;;
50056;SDS011;36875;49.468;11.200;2022-10-16T04:48:48;0.90;;;0.70;;
50056;SDS011;36875;49.468;11.200;2022-10-16T04:51:14;0.80;;;0.60;;
50056;SDS011;36875;49.468;11.200;2022-10-16T04:53:39;0.68;;;0.60;;
50056;SDS011;36875;49.468;11.200;2022-10-16T04:56:05;0.70;;;0.60;;
50056;SDS011;36875;49.468;11.200;2022-10-16T04:58:30;0.80;;;0.73;;
50056;SDS011;36875;49.468;11.200;2022-10-16T05:00:56;1.00;;;0.50;;
50056;SDS011;36875;49.468;11.200;2022-10-16T05:03:21;0.88;;;0.63;;
50056;SDS011;36875;49.468;11.200;2022-10-16T05:05:48;1.58;;;0.70;;
50056;SDS011;36875;49.468;11.200;2022-10-16T05:08:14;0.80;;;0.50;;
50056;SDS011;36875;49.468;11.200;2022-10-16T05:10:40;1.13;;;0.70;;
50056;SDS011;36875;49.468;11.200;2022-10-16T05:13:07;1.42;;;0.52;;
50056;SDS011;36875;49.468;11.200;2022-10-16T05:15:32;1.00;;;0.57;;
50056;SDS011;36875;49.468;11.200;2022-10-16T05:17:58;1.30;;;0.70;;
50056;SDS011;36875;49.468;11.200;2022-10-16T05:20:23;1.35;;;0.63;;
50056;SDS011;36875;49.468;11.200;2022-10-16T05:22:50;1.05;;;0.80;;
50056;SDS011;36875;49.468;11.200;2022-10-16T05:25:16;2.35;;;0.65;;
50056;SDS011;36875;49.468;11.200;2022-10-16T05:27:41;1.20;;;0.70;;
50056;SDS011;36875;49.468;11.200;2022-10-16T05:30:07;2.95;;;0.70;;
50056;SDS011;36875;49.468;11.200;2022-10-16T05:32:33;2.97;;;0.80;;
50056;SDS011;36875;49.468;11.200;2022-10-16T05:34:59;1.15;;;0.65;;
50056;SDS011;36875;49.468;11.200;2022-10-16T05:37:25;1.45;;;0.57;;
50056;SDS011;36875;49.468;11.200;2022-10-16T05:39:51;3.78;;;0.63;;
50056;SDS011;36875;49.468;11.200;2022-10-16T05:42:17;2.20;;;0.90;;
50056;SDS011;36875;49.468;11.200;2022-10-16T05:44:42;1.65;;;0.70;;
50056;SDS011;36875;49.468;11.200;2022-10-16T05:47:08;1.00;;;0.65;;
50056;SDS011;36875;49.468;11.200;2022-10-16T05:49:33;2.50;;;1.00;;
50056;SDS011;36875;49.468;11.200;2022-10-16T05:51:59;2.50;;;0.88;;
50056;SDS011;36875;49.468;11.200;2022-10-16T05:54:24;1.75;;;0.70;;
50056;SDS011;36875;49.468;11.200;2022-10-16T05:56:51;3.85;;;0.88;;
50056;SDS011;36875;49.468;11.200;2022-10-16T05:59:17;5.18;;;1.00;;
50056;SDS011;36875;49.468;11.200;2022-10-16T06:01:42;2.80;;;0.70;;
50056;SDS011;36875;49.468;11.200;2022-10-16T06:04:08;2.28;;;0.70;;
50056;SDS011;36875;49.468;11.200;2022-10-16T06:06:34;4.55;;;0.90;;
50056;SDS011;36875;49.468;11.200;2022-10-16T06:09:01;3.58;;;0.85;;
50056;SDS011;36875;49.468;11.200;2022-10-16T06:11:28;2.40;;;0.90;;
50056;SDS011;36875;49.468;11.200;2022-10-16T06:13:57;2.50;;;0.90;;
50056;SDS011;36875;49.468;11.200;2022-10-16T06:16:25;3.50;;;0.90;;
50056;SDS011;36875;49.468;11.200;2022-10-16T06:18:51;4.00;;;1.05;;
50056;SDS011;36875;49.468;11.200;2022-10-16T06:21:18;3.25;;;1.10;;
50056;SDS011;36875;49.468;11.200;2022-10-16T06:23:45;5.18;;;1.00;;
50056;SDS011;36875;49.468;11.200;2022-10-16T06:26:12;4.93;;;1.35;;
50056;SDS011;36875;49.468;11.200;2022-10-16T06:28:38;4.10;;;1.00;;
50056;SDS011;36875;49.468;11.200;2022-10-16T06:31:06;4.75;;;1.30;;
50056;SDS011;36875;49.468;11.200;2022-10-16T06:33:32;3.75;;;1.00;;
50056;SDS011;36875;49.468;11.200;2022-10-16T06:36:02;3.72;;;1.10;;
50056;SDS011;36875;49.468;11.200;2022-10-16T06:38:28;5.13;;;1.10;;
50056;SDS011;36875;49.468;11.200;2022-10-16T06:40:53;2.80;;;1.00;;
50056;SDS011;36875;49.468;11.200;2022-10-16T06:43:19;3.63;;;1.10;;
50056;SDS011;36875;49.468;11.200;2022-10-16T06:45:49;5.20;;;1.00;;
50056;SDS011;36875;49.468;11.200;2022-10-16T06:48:17;6.57;;;1.27;;
50056;SDS011;36875;49.468;11.200;2022-10-16T06:50:42;4.28;;;1.05;;
50056;SDS011;36875;49.468;11.200;2022-10-16T06:53:08;5.22;;;1.00;;
50056;SDS011;36875;49.468;11.200;2022-10-16T06:55:33;6.88;;;1.42;;
50056;SDS011;36875;49.468;11.200;2022-10-16T06:57:59;6.18;;;1.40;;
50056;SDS011;36875;49.468;11.200;2022-10-16T07:00:24;6.40;;;1.10;;
50056;SDS011;36875;49.468;11.200;2022-10-16T07:02:50;3.75;;;1.63;;
50056;SDS011;36875;49.468;11.200;2022-10-16T07:05:16;3.80;;;0.95;;
50056;SDS011;36875;49.468;11.200;2022-10-16T07:07:42;4.90;;;1.10;;
50056;SDS011;36875;49.468;11.200;2022-10-16T07:10:08;4.15;;;1.00;;
50056;SDS011;36875;49.468;11.200;2022-10-16T07:12:33;4.13;;;1.15;;
50056;SDS011;36875;49.468;11.200;2022-10-16T07:14:59;5.43;;;1.00;;
50056;SDS011;36875;49.468;11.200;2022-10-16T07:17:24;4.63;;;1.30;;
50056;SDS011;36875;49.468;11.200;2022-10-16T07:19:50;5.28;;;1.00;;
50056;SDS011;36875;49.468;11.200;2022-10-16T07:22:19;5.82;;;1.45;;
50056;SDS011;36875;49.468;11.200;2022-10-16T07:24:45;2.95;;;0.90;;
50056;SDS011;36875;49.468;11.200;2022-10-16T07:27:12;3.22;;;1.00;;
50056;SDS011;36875;49.468;11.200;2022-10-16T07:29:38;2.90;;;1.10;;
50056;SDS011;36875;49.468;11.200;2022-10-16T07:32:03;3.70;;;1.08;;
50056;SDS011;36875;49.468;11.200;2022-10-16T07:34:29;3.92;;;0.88;;
50056;SDS011;36875;49.468;11.200;2022-10-16T07:36:54;3.03;;;1.10;;
50056;SDS011;36875;49.468;11.200;2022-10-16T07:39:21;2.47;;;1.23;;
50056;SDS011;36875;49.468;11.200;2022-10-16T07:41:47;5.13;;;1.20;;
50056;SDS011;36875;49.468;11.200;2022-10-16T07:44:12;4.35;;;1.00;;
50056;SDS011;36875;49.468;11.200;2022-10-16T07:46:38;5.03;;;1.00;;
50056;SDS011;36875;49.468;11.200;2022-10-16T07:49:03;5.88;;;1.20;;
50056;SDS011;36875;49.468;11.200;2022-10-16T07:51:29;4.00;;;0.95;;
50056;SDS011;36875;49.468;11.200;2022-10-16T07:53:55;2.42;;;0.80;;
50056;SDS011;36875;49.468;11.200;2022-10-16T07:56:22;4.80;;;1.00;;
50056;SDS011;36875;49.468;11.200;2022-10-16T07:58:49;4.88;;;1.20;;
50056;SDS011;36875;49.468;11.200;2022-10-16T08:01:15;3.33;;;1.08;;
50056;SDS011;36875;49.468;11.200;2022-10-16T08:03:43;6.45;;;1.48;;
50056;SDS011;36875;49.468;11.200;2022-10-16T08:06:09;4.70;;;1.10;;
50056;SDS011;36875;49.468;11.200;2022-10-16T08:08:34;3.95;;;1.10;;
50056;SDS011;36875;49.468;11.200;2022-10-16T08:11:00;5.30;;;1.70;;
50056;SDS011;36875;49.468;11.200;2022-10-16T08:13:29;3.75;;;1.17;;
50056;SDS011;36875;49.468;11.200;2022-10-16T08:15:55;3.63;;;1.60;;
50056;SDS011;36875;49.468;11.200;2022-10-16T08:18:21;3.42;;;1.40;;
50056;SDS011;36875;49.468;11.200;2022-10-16T08:20:47;2.67;;;1.13;;
50056;SDS011;36875;49.468;11.200;2022-10-16T08:23:12;5.90;;;1.65;;
50056;SDS011;36875;49.468;11.200;2022-10-16T08:25:38;5.53;;;1.63;;
50056;SDS011;36875;49.468;11.200;2022-10-16T08:28:04;5.95;;;2.08;;
50056;SDS011;36875;49.468;11.200;2022-10-16T08:30:32;3.97;;;1.38;;
50056;SDS011;36875;49.468;11.200;2022-10-16T08:32:58;3.47;;;1.65;;
50056;SDS011;36875;49.468;11.200;2022-10-16T08:35:24;8.23;;;1.63;;
50056;SDS011;36875;49.468;11.200;2022-10-16T08:37:49;4.47;;;1.60;;
50056;SDS011;36875;49.468;11.200;2022-10-16T08:40:16;4.97;;;1.58;;
50056;SDS011;36875;49.468;11.200;2022-10-16T08:42:47;6.57;;;1.50;;
50056;SDS011;36875;49.468;11.200;2022-10-16T08:45:28;4.40;;;1.48;;
50056;SDS011;36875;49.468;11.200;2022-10-16T08:48:06;4.47;;;1.50;;
50056;SDS011;36875;49.468;11.200;2022-10-16T08:50:39;5.40;;;1.55;;
50056;SDS011;36875;49.468;11.200;2022-10-16T08:53:05;5.45;;;1.33;;
50056;SDS011;36875;49.468;11.200;2022-10-16T08:55:33;6.82;;;2.20;;
50056;SDS011;36875;49.468;11.200;2022-10-16T08:58:07;5.35;;;1.60;;
50056;SDS011;36875;49.468;11.200;2022-10-16T09:00:38;6.13;;;1.92;;
50056;SDS011;36875;49.468;11.200;2022-10-16T09:03:05;7.13;;;2.03;;
50056;SDS011;36875;49.468;11.200;2022-10-16T09:05:45;5.90;;;1.35;;
50056;SDS011;36875;49.468;11.200;2022-10-16T09:08:32;5.75;;;1.50;;
50056;SDS011;36875;49.468;11.200;2022-10-16T09:11:09;5.75;;;1.42;;
50056;SDS011;36875;49.468;11.200;2022-10-16T09:13:43;8.63;;;1.45;;
50056;SDS011;36875;49.468;11.200;2022-10-16T09:16:16;6.03;;;1.60;;
50056;SDS011;36875;49.468;11.200;2022-10-16T09:18:48;8.80;;;2.30;;
50056;SDS011;36875;49.468;11.200;2022-10-16T09:21:21;5.35;;;1.70;;
50056;SDS011;36875;49.468;11.200;2022-10-16T09:26:15;7.32;;;2.17;;
50056;SDS011;36875;49.468;11.200;2022-10-16T09:28:43;11.32;;;2.20;;
50056;SDS011;36875;49.468;11.200;2022-10-16T09:31:11;5.50;;;2.25;;
50056;SDS011;36875;49.468;11.200;2022-10-16T09:33:42;8.10;;;2.50;;
50056;SDS011;36875;49.468;11.200;2022-10-16T09:36:10;11.20;;;3.30;;
50056;SDS011;36875;49.468;11.200;2022-10-16T09:38:38;9.10;;;3.30;;
50056;SDS011;36875;49.468;11.200;2022-10-16T09:41:10;8.95;;;3.35;;
50056;SDS011;36875;49.468;11.200;2022-10-16T09:43:41;9.65;;;3.40;;
50056;SDS011;36875;49.468;11.200;2022-10-16T09:46:22;10.35;;;3.83;;
50056;SDS011;36875;49.468;11.200;2022-10-16T09:48:51;10.73;;;3.88;;
50056;SDS011;36875;49.468;11.200;2022-10-16T09:51:21;10.27;;;4.07;;
50056;SDS011;36875;49.468;11.200;2022-10-16T09:53:49;11.05;;;4.25;;
50056;SDS011;36875;49.468;11.200;2022-10-16T09:56:21;11.15;;;4.20;;
50056;SDS011;36875;49.468;11.200;2022-10-16T09:58:49;8.98;;;4.00;;
50056;SDS011;36875;49.468;11.200;2022-10-16T10:01:16;8.63;;;3.80;;
50056;SDS011;36875;49.468;11.200;2022-10-16T10:03:43;8.30;;;3.53;;
50056;SDS011;36875;49.468;11.200;2022-10-16T10:06:17;10.50;;;3.80;;
50056;SDS011;36875;49.468;11.200;2022-10-16T10:11:43;10.80;;;3.13;;
50056;SDS011;36875;49.468;11.200;2022-10-16T10:14:31;7.75;;;3.25;;
50056;SDS011;36875;49.468;11.200;2022-10-16T10:17:07;9.35;;;3.53;;
50056;SDS011;36875;49.468;11.200;2022-10-16T10:19:38;10.32;;;3.05;;
50056;SDS011;36875;49.468;11.200;2022-10-16T10:22:13;9.63;;;3.03;;
50056;SDS011;36875;49.468;11.200;2022-10-16T10:24:41;8.50;;;2.70;;
50056;SDS011;36875;49.468;11.200;2022-10-16T10:27:10;8.23;;;2.70;;
50056;SDS011;36875;49.468;11.200;2022-10-16T10:32:15;10.20;;;2.53;;
50056;SDS011;36875;49.468;11.200;2022-10-16T10:34:54;6.57;;;2.53;;
50056;SDS011;36875;49.468;11.200;2022-10-16T10:37:37;9.35;;;2.63;;
50056;SDS011;36875;49.468;11.200;2022-10-16T10:40:20;7.82;;;2.42;;
50056;SDS011;36875;49.468;11.200;2022-10-16T10:42:54;7.25;;;2.38;;
50056;SDS011;36875;49.468;11.200;2022-10-16T10:45:32;5.10;;;1.83;;
50056;SDS011;36875;49.468;11.200;2022-10-16T10:48:12;5.97;;;2.08;;
50056;SDS011;36875;49.468;11.200;2022-10-16T10:50:47;5.15;;;2.20;;
50056;SDS011;36875;49.468;11.200;2022-10-16T10:53:20;6.78;;;2.00;;
50056;SDS011;36875;49.468;11.200;2022-10-16T10:55:54;8.25;;;2.17;;
50056;SDS011;36875;49.468;11.200;2022-10-16T11:01:27;5.28;;;1.95;;
50056;SDS011;36875;49.468;11.200;2022-10-16T11:07:09;3.72;;;1.90;;
50056;SDS011;36875;49.468;11.200;2022-10-16T11:09:41;5.95;;;1.77;;
50056;SDS011;36875;49.468;11.200;2022-10-16T11:12:12;6.95;;;2.55;;
50056;SDS011;36875;49.468;11.200;2022-10-16T11:14:46;8.43;;;1.92;;
50056;SDS011;36875;49.468;11.200;2022-10-16T11:17:17;3.78;;;1.77;;
50056;SDS011;36875;49.468;11.200;2022-10-16T11:19:48;6.60;;;1.77;;
50056;SDS011;36875;49.468;11.200;2022-10-16T11:22:20;5.72;;;1.90;;
50056;SDS011;36875;49.468;11.200;2022-10-16T11:24:51;6.38;;;1.60;;
50056;SDS011;36875;49.468;11.200;2022-10-16T11:27:24;4.15;;;1.58;;
50056;SDS011;36875;49.468;11.200;2022-10-16T11:30:04;4.38;;;1.50;;
50056;SDS011;36875;49.468;11.200;2022-10-16T11:32:41;3.53;;;1.35;;
50056;SDS011;36875;49.468;11.200;2022-10-16T11:35:15;3.30;;;1.40;;
50056;SDS011;36875;49.468;11.200;2022-10-16T11:40:18;4.03;;;1.45;;
50056;SDS011;36875;49.468;11.200;2022-10-16T11:42:48;6.13;;;1.60;;
50056;SDS011;36875;49.468;11.200;2022-10-16T11:45:23;4.35;;;1.50;;
50056;SDS011;36875;49.468;11.200;2022-10-16T11:47:54;2.78;;;1.40;;
50056;SDS011;36875;49.468;11.200;2022-10-16T11:50:26;3.08;;;1.33;;
50056;SDS011;36875;49.468;11.200;2022-10-16T11:53:00;5.10;;;1.60;;
50056;SDS011;36875;49.468;11.200;2022-10-16T11:55:30;2.13;;;1.15;;
50056;SDS011;36875;49.468;11.200;2022-10-16T11:58:00;5.43;;;1.33;;
50056;SDS011;36875;49.468;11.200;2022-10-16T12:00:30;3.97;;;1.77;;
50056;SDS011;36875;49.468;11.200;2022-10-16T12:03:02;3.78;;;1.40;;
50056;SDS011;36875;49.468;11.200;2022-10-16T12:05:52;6.65;;;1.38;;
50056;SDS011;36875;49.468;11.200;2022-10-16T12:08:26;3.30;;;1.50;;
50056;SDS011;36875;49.468;11.200;2022-10-16T12:10:52;2.85;;;1.23;;
50056;SDS011;36875;49.468;11.200;2022-10-16T12:13:30;2.53;;;1.38;;
50056;SDS011;36875;49.468;11.200;2022-10-16T12:16:20;8.27;;;1.55;;
50056;SDS011;36875;49.468;11.200;2022-10-16T12:18:47;6.57;;;1.80;;
50056;SDS011;36875;49.468;11.200;2022-10-16T12:21:14;7.22;;;1.50;;
50056;SDS011;36875;49.468;11.200;2022-10-16T12:23:48;8.38;;;1.60;;
50056;SDS011;36875;49.468;11.200;2022-10-16T12:26:23;9.32;;;1.77;;
50056;SDS011;36875;49.468;11.200;2022-10-16T12:28:49;7.57;;;1.80;;
50056;SDS011;36875;49.468;11.200;2022-10-16T12:31:16;6.40;;;1.50;;
50056;SDS011;36875;49.468;11.200;2022-10-16T12:33:56;7.15;;;1.55;;
50056;SDS011;36875;49.468;11.200;2022-10-16T12:36:27;5.63;;;1.50;;
50056;SDS011;36875;49.468;11.200;2022-10-16T12:38:57;6.80;;;1.55;;
50056;SDS011;36875;49.468;11.200;2022-10-16T12:41:24;8.48;;;1.75;;
50056;SDS011;36875;49.468;11.200;2022-10-16T12:43:52;5.78;;;1.88;;
50056;SDS011;36875;49.468;11.200;2022-10-16T12:46:22;5.22;;;1.58;;
50056;SDS011;36875;49.468;11.200;2022-10-16T12:49:05;5.60;;;1.40;;
50056;SDS011;36875;49.468;11.200;2022-10-16T12:51:46;6.55;;;1.80;;
50056;SDS011;36875;49.468;11.200;2022-10-16T12:54:14;4.05;;;1.23;;
50056;SDS011;36875;49.468;11.200;2022-10-16T12:56:44;5.07;;;1.60;;
50056;SDS011;36875;49.468;11.200;2022-10-16T12:59:19;3.95;;;1.50;;
50056;SDS011;36875;49.468;11.200;2022-10-16T13:01:58;4.03;;;1.55;;
50056;SDS011;36875;49.468;11.200;2022-10-16T13:04:44;5.35;;;1.50;;
50056;SDS011;36875;49.468;11.200;2022-10-16T13:07:21;4.25;;;1.92;;
50056;SDS011;36875;49.468;11.200;2022-10-16T13:10:04;2.58;;;1.50;;
50056;SDS011;36875;49.468;11.200;2022-10-16T13:12:53;3.83;;;1.60;;
50056;SDS011;36875;49.468;11.200;2022-10-16T13:15:35;3.65;;;1.40;;
50056;SDS011;36875;49.468;11.200;2022-10-16T13:18:13;2.58;;;1.40;;
50056;SDS011;36875;49.468;11.200;2022-10-16T13:20:46;4.37;;;1.63;;
50056;SDS011;36875;49.468;11.200;2022-10-16T13:23:21;4.53;;;1.52;;
50056;SDS011;36875;49.468;11.200;2022-10-16T13:25:56;2.83;;;1.40;;
50056;SDS011;36875;49.468;11.200;2022-10-16T13:28:34;4.85;;;1.65;;
50056;SDS011;36875;49.468;11.200;2022-10-16T13:31:02;7.72;;;1.52;;
50056;SDS011;36875;49.468;11.200;2022-10-16T13:33:30;3.55;;;1.40;;
50056;SDS011;36875;49.468;11.200;2022-10-16T13:35:58;4.32;;;1.73;;
50056;SDS011;36875;49.468;11.200;2022-10-16T13:38:25;2.80;;;1.58;;
50056;SDS011;36875;49.468;11.200;2022-10-16T13:43:24;3.13;;;1.40;;
50056;SDS011;36875;49.468;11.200;2022-10-16T13:45:53;2.13;;;1.20;;
50056;SDS011;36875;49.468;11.200;2022-10-16T13:48:20;4.07;;;1.75;;
50056;SDS011;36875;49.468;11.200;2022-10-16T13:50:45;3.00;;;1.50;;
50056;SDS011;36875;49.468;11.200;2022-10-16T13:53:13;3.90;;;1.33;;
50056;SDS011;36875;49.468;11.200;2022-10-16T13:55:39;3.00;;;1.30;;
50056;SDS011;36875;49.468;11.200;2022-10-16T13:58:06;2.30;;;1.48;;
50056;SDS011;36875;49.468;11.200;2022-10-16T14:00:33;3.33;;;1.67;;
50056;SDS011;36875;49.468;11.200;2022-10-16T14:03:01;2.47;;;1.50;;
50056;SDS011;36875;49.468;11.200;2022-10-16T14:05:28;4.10;;;1.50;;
50056;SDS011;36875;49.468;11.200;2022-10-16T14:07:54;1.98;;;1.50;;
50056;SDS011;36875;49.468;11.200;2022-10-16T14:10:22;2.95;;;1.38;;
50056;SDS011;36875;49.468;11.200;2022-10-16T14:12:57;2.08;;;1.48;;
50056;SDS011;36875;49.468;11.200;2022-10-16T14:15:26;2.70;;;1.40;;
50056;SDS011;36875;49.468;11.200;2022-10-16T14:17:51;2.88;;;1.40;;
50056;SDS011;36875;49.468;11.200;2022-10-16T14:20:18;2.65;;;1.40;;
50056;SDS011;36875;49.468;11.200;2022-10-16T14:22:47;1.90;;;1.45;;
50056;SDS011;36875;49.468;11.200;2022-10-16T14:25:25;2.95;;;1.50;;
50056;SDS011;36875;49.468;11.200;2022-10-16T14:27:59;4.78;;;1.63;;
50056;SDS011;36875;49.468;11.200;2022-10-16T14:30:28;3.63;;;1.40;;
50056;SDS011;36875;49.468;11.200;2022-10-16T14:32:56;2.72;;;1.30;;
50056;SDS011;36875;49.468;11.200;2022-10-16T14:35:26;1.88;;;1.40;;
50056;SDS011;36875;49.468;11.200;2022-10-16T14:37:54;2.17;;;1.50;;
50056;SDS011;36875;49.468;11.200;2022-10-16T14:40:21;2.67;;;1.20;;
50056;SDS011;36875;49.468;11.200;2022-10-16T14:42:49;2.30;;;1.40;;
50056;SDS011;36875;49.468;11.200;2022-10-16T14:45:18;1.85;;;1.30;;
50056;SDS011;36875;49.468;11.200;2022-10-16T14:47:49;1.43;;;1.33;;
50056;SDS011;36875;49.468;11.200;2022-10-16T14:50:17;2.78;;;1.52;;
50056;SDS011;36875;49.468;11.200;2022-10-16T14:52:42;2.28;;;1.52;;
50056;SDS011;36875;49.468;11.200;2022-10-16T14:55:08;1.63;;;1.20;;
50056;SDS011;36875;49.468;11.200;2022-10-16T14:57:34;2.10;;;1.38;;
50056;SDS011;36875;49.468;11.200;2022-10-16T15:00:03;3.85;;;2.08;;
50056;SDS011;36875;49.468;11.200;2022-10-16T15:02:32;2.08;;;1.38;;
50056;SDS011;36875;49.468;11.200;2022-10-16T15:05:04;1.77;;;1.35;;
50056;SDS011;36875;49.468;11.200;2022-10-16T15:07:36;2.72;;;1.33;;